Airfield :
LOGIN :

Register | Disclaimer

   EN    FR    IT 

 










Legend :    VFR   Marginal VFR   IFR   Intensive IFR   Very Intensive IFR
Visi :
Ceiling :
>= 8 km
>= 3000ft
5 to 8 km
1000 to 3000 ft
1500m to 5 km
500 to 1000 ft
800 to 1500m
200 to 500 ft
< 800m
< 200 ft
Symbols :   Thunderstorms  Fog  Heavy snow  Heavy precipitations  Wind > 20 kt
SIGMETs :     Misc.  Thunderstorms  Icing  Turbulence  Mountain Waves  Volcanic Ashes







- Airport Elevation : 278 ft
- IATA code : RJK


LDRI - Rijeka

CURRENT METAR :
  • 171930Z 15011KT 100V180 9999 SCT030 OVC045 09/07 Q1013

EXPIRED METARs :
  • 171900Z 14011KT 9999 SCT030 OVC045 10/07 Q1012
  • 171830Z 15010KT 100V190 9999 SCT030 OVC045 10/08 Q1012
  • 171800Z 17009KT 9999 FEW023 SCT030 OVC040 10/08 Q1013
  • 171730Z 17009KT 140V200 9999 FEW023 SCT030 OVC040 10/07 Q1013
  • 171700Z 17010KT 150V240 9999 -RA FEW023 SCT030 OVC040 10/07 Q1013

TAF TAF LDRI
Valid from the 17 at 18:00 until the 18 at 18:00 UTC


171725Z 1718/1818 17010KT 9999 -RA SCT020 BKN035 TX10/1718Z TN04/1817Z
PROB30
TEMPO 1719/1723 SHRA FEW025TCU BKN030
PROB40
TEMPO 1723/1810 3000 TSRA FEW020CB BKN030
TEMPO 1805/1813 RA
BECMG 1808/1810 06012KT
PROB30
TEMPO 1810/1818 06015G25KT
No reported NOTAMs for that airfield.
1 SIGMET reported for the Zagreb FIR (LDZO) :
 
Severe turbulence
LDZO SIGMET 1 VALID 171926/172200 LDZA
LDZO ZAGREB FIR SEV TURB OBS WI N4330 E01432 - N4433 E01322 - N4514 E01301 - N4532 E01324 - N4611 E01540 - N4457 E01904 - N4222 E01830 - N4330 E01432 ABV FL300 STNR NC=



MET'MAP, your aeronautical weather chart ! - Copyright ORBIFLY December 2007 - Disclaimer

ORBIFLY MET'MAP TEAM :

Programming & Development : Alexandra Zaïnal
Concept & Development : Baudouin d'Aumeries
Co-Development & Prog : Marc-Olivier Méhu
Technical & hardware support : Manuel Goepfert

Contact : metmap@orbifly.com




SOURCES & CREDITS :

   NOAA